Historique des mesures à Cassis (13260), France
Quotidien Résumé Mars 12, 2021 Unités:  US    Métrique   Métrique/US
Quotidien Hebdomadaire Mensuel Annuel
  Maximum: Minimum: Moyenne:
Température: 51.6 °F 35.8 °F 43 °F
Point de rosée: 35.1 °F 26.1 °F 31.6 °F
Humidité: 75% 53% 64%
Vitesse du vent: 50.3mph 3.1mph 15.8mph
Rafales: 50.3mph - -
Vent- - WNW
Pression: 30 in 30 in -
Précipitations: 0 in    
Historical Graphs
 
 
Mesures pour : Mars 12, 2021
Heure Temperature Point de rosée Pression Vent Vitesse du vent Rafales Humidité Pluie (par heure)
00:10 39.7 °F 30 °F 30 in NW 3.1 mph 7 mph 68% 0 in
01:11 39.2 °F 30.6 °F 30 in NNW 3.6 mph 8.5 mph 71% 0 in
02:10 39 °F 31.1 °F 30 in NW 3.1 mph 6.5 mph 73% 0 in
03:11 38.5 °F 30.6 °F 30 in WNW 6.3 mph 8.1 mph 73% 0 in
04:10 37.6 °F 29.7 °F 30 in NW 8.1 mph 12.6 mph 73% 0 in
05:11 36.7 °F 29.5 °F 30 in WNW 6.5 mph 16.3 mph 75% 0 in
06:10 36.3 °F 28.4 °F 30 in NW 11.2 mph 14.5 mph 73% 0 in
07:11 36.9 °F 28.8 °F 30 in NW 13.2 mph 17 mph 72% 0 in
08:10 35.8 °F 26.6 °F 30 in NW 3.1 mph 4.5 mph 69% 0 in
09:11 37.2 °F 26.1 °F 30 in NW 13.7 mph 20.6 mph 64% 0 in
10:10 37.8 °F 27.7 °F 30 in WNW 10.1 mph 17.2 mph 67% 0 in
11:11 41.4 °F 30 °F 30 in North 13.7 mph 17.2 mph 64% 0 in
12:10 42.6 °F 30.4 °F 30 in WNW 18.8 mph 32.9 mph 62% 0 in
13:11 46.8 °F 33.1 °F 30 in WNW 15 mph 22.4 mph 59% 0 in
14:10 50.2 °F 34.5 °F 30 in WNW 23.2 mph 36.9 mph 55% 0 in
15:11 51.6 °F 35.1 °F 30 in NW 16.8 mph 31.7 mph 53% 0 in
16:10 50.5 °F 34.5 °F 30 in WNW 21.5 mph 29.5 mph 54% 0 in
17:11 49.3 °F 34.2 °F 30 in WNW 17 mph 21.2 mph 56% 0 in
18:11 48.9 °F 34.3 °F 30 in West 25.3 mph 34.4 mph 57% 0 in
19:10 49.3 °F 34.2 °F 30 in WNW 50.3 mph 50.3 mph 56% 0 in
20:11 47.8 °F 34.7 °F 30 in WNW 25 mph 34.2 mph 60% 0 in
21:10 46.2 °F 34.7 °F 30 in West 11.6 mph 22.4 mph 64% 0 in
22:11 46.2 °F 34.7 °F 30 in NW 23.7 mph 26 mph 64% 0 in
23:10 46.4 °F 34.5 °F 30 in WNW 35.1 mph 35.1 mph 63% 0 in
Observations météo à CASSIS
WU-History script by Weather Underground - 2 mb